TimeCDT,TemperatureF,Dew PointF,Humidity,Sea Level PressureIn,VisibilityMPH,Wind Direction,Wind SpeedMPH,Gust SpeedMPH,PrecipitationIn,Events,Conditions,WindDirDegrees,DateUTC
12:53 AM,57.0,44.1,62,30.13,10.0,NNE,6.9,-,N/A,,Clear,20,2012-09-09 05:53:00
1:53 AM,55.9,39.0,53,30.14,10.0,North,5.8,-,N/A,,Clear,10,2012-09-09 06:53:00
2:53 AM,51.1,37.9,61,30.16,10.0,North,4.6,-,N/A,,Clear,360,2012-09-09 07:53:00
3:53 AM,48.9,36.0,61,30.17,10.0,North,5.8,-,N/A,,Clear,360,2012-09-09 08:53:00
4:53 AM,46.0,37.0,71,30.19,10.0,WNW,3.5,-,N/A,,Clear,300,2012-09-09 09:53:00
5:53 AM,45.0,37.0,74,30.21,10.0,Calm,Calm,-,N/A,,Clear,0,2012-09-09 10:53:00
6:53 AM,43.0,35.1,74,30.22,10.0,North,4.6,-,N/A,,Clear,350,2012-09-09 11:53:00
7:53 AM,48.0,37.0,66,30.25,10.0,NW,3.5,-,N/A,,Clear,320,2012-09-09 12:53:00
8:53 AM,55.0,39.0,55,30.26,10.0,North,3.5,-,N/A,,Clear,350,2012-09-09 13:53:00
9:53 AM,62.1,42.1,48,30.27,10.0,NNE,3.5,-,N/A,,Clear,20,2012-09-09 14:53:00
10:53 AM,66.0,42.1,42,30.27,10.0,ENE,6.9,-,N/A,,Clear,70,2012-09-09 15:53:00
11:53 AM,68.0,39.0,35,30.26,10.0,Variable,4.6,-,N/A,,Clear,0,2012-09-09 16:53:00
12:53 PM,71.1,37.0,29,30.24,10.0,ENE,4.6,-,N/A,,Clear,70,2012-09-09 17:53:00
1:53 PM,73.0,37.0,27,30.22,10.0,Calm,Calm,-,N/A,,Clear,0,2012-09-09 18:53:00
2:53 PM,75.9,36.0,23,30.19,10.0,Variable,4.6,-,N/A,,Clear,0,2012-09-09 19:53:00
3:53 PM,77.0,33.1,20,30.16,10.0,Variable,5.8,-,N/A,,Clear,0,2012-09-09 20:53:00
4:53 PM,78.1,33.1,19,30.14,10.0,SSE,4.6,-,N/A,,Clear,160,2012-09-09 21:53:00
5:53 PM,78.1,33.1,19,30.12,10.0,SE,4.6,-,N/A,,Clear,140,2012-09-09 22:53:00
6:53 PM,75.9,35.1,23,30.12,10.0,SSE,6.9,-,N/A,,Clear,150,2012-09-09 23:53:00
7:53 PM,69.1,37.9,32,30.10,10.0,SE,6.9,-,N/A,,Clear,140,2012-09-10 00:53:00
8:53 PM,63.0,39.0,41,30.11,10.0,SSE,4.6,-,N/A,,Clear,160,2012-09-10 01:53:00
9:53 PM,60.1,39.0,46,30.12,10.0,South,5.8,-,N/A,,Clear,170,2012-09-10 02:53:00
10:53 PM,60.1,39.0,46,30.11,10.0,South,8.1,-,N/A,,Clear,170,2012-09-10 03:53:00
11:53 PM,57.0,39.9,53,30.10,10.0,South,8.1,-,N/A,,Clear,180,2012-09-10 04:53:00